Terminal Aerodrome Forecast
Issued by NWS Charleston, SC

Home | Current Version | Previous Version | Text Only | Print | Product List | Glossary On
Versions: 1 2 3 4 5 6 7 8 9 10 11 12
000
FTUS42 KCHS 310520
TAFCHS
TAF
KCHS 310520Z 3106/0106 22007KT P6SM FEW035 SCT120
     FM311800 20010KT P6SM VCTS FEW035CB SCT050
     FM312100 19013KT P6SM FEW050 SCT080 BKN200
     FM010200 19007KT P6SM SCT080 BKN250=

USA.gov is the U.S. government's official web portal to all federal, state and local government web resources and services.